Time,TemperatureF,DewpointF,PressureIn,WindDirection,WindDirectionDegrees,WindSpeedMPH,WindSpeedGustMPH,Humidity,HourlyPrecipIn,Conditions,Clouds,dailyrainin,SoftwareType,DateUTC
2013-03-14 00:00:00,59.5,28.0,30.04,WSW,258,3.5,3.5,30,0.00,CLR,,0.00,WeatherDisplay:10.37,2013-03-14 07:00:00,
2013-03-14 00:05:00,58.6,28.8,30.04,WSW,258,1.1,0.0,32,0.00,OVC,,0.00,WeatherDisplay:10.37,2013-03-14 07:05:00,
2013-03-14 00:10:00,57.6,27.9,30.04,SW,219,4.0,4.0,32,0.00,OVC,,0.00,WeatherDisplay:10.37,2013-03-14 07:10:00,
2013-03-14 00:15:00,56.6,28.5,30.04,SSW,211,5.0,5.0,34,0.00,OVC,,0.00,WeatherDisplay:10.37,2013-03-14 07:15:00,
2013-03-14 00:20:00,54.9,28.4,30.04,SSW,211,5.0,5.0,36,0.00,OVC,,0.00,WeatherDisplay:10.37,2013-03-14 07:20:00,
2013-03-14 00:26:00,54.6,28.2,30.04,SSW,212,5.8,5.8,36,0.00,OVC,,0.00,WeatherDisplay:10.37,2013-03-14 07:26:00,
2013-03-14 00:31:00,53.9,28.2,30.04,SSW,192,7.0,7.0,37,0.00,OVC,,0.00,WeatherDisplay:10.37,2013-03-14 07:31:00,
2013-03-14 00:36:00,51.9,28.9,30.04,SSW,201,7.0,7.0,41,0.00,OVC,,0.00,WeatherDisplay:10.37,2013-03-14 07:36:00,
2013-03-14 00:41:00,51.8,28.8,30.04,SSW,199,8.0,8.0,41,0.00,OVC,,0.00,WeatherDisplay:10.37,2013-03-14 07:41:00,
2013-03-14 00:46:00,52.5,28.8,30.04,SSW,194,8.1,8.1,40,0.00,OVC,,0.00,WeatherDisplay:10.37,2013-03-14 07:46:00,
2013-03-14 00:51:00,52.5,28.8,30.04,SSW,194,7.0,7.0,40,0.00,OVC,,0.00,WeatherDisplay:10.37,2013-03-14 07:51:00,
2013-03-14 00:56:00,51.9,28.3,30.04,South,190,8.0,8.0,40,0.00,OVC,,0.00,WeatherDisplay:10.37,2013-03-14 07:56:00,
2013-03-14 01:01:00,51.4,28.5,30.04,SSW,193,7.0,7.0,41,0.00,OVC,,0.00,WeatherDisplay:10.37,2013-03-14 08:01:00,
2013-03-14 01:06:00,50.8,28.5,30.04,SSW,195,7.0,7.0,42,0.00,OVC,,0.00,WeatherDisplay:10.37,2013-03-14 08:06:00,
2013-03-14 01:12:00,50.3,28.1,30.04,SSW,193,6.9,6.9,42,0.00,OVC,,0.00,WeatherDisplay:10.37,2013-03-14 08:12:00,
2013-03-14 01:17:00,49.7,28.1,30.04,SSW,195,6.0,6.0,43,0.00,OVC,,0.00,WeatherDisplay:10.37,2013-03-14 08:17:00,
2013-03-14 01:22:00,49.4,27.8,30.04,SW,224,7.0,7.0,43,0.00,OVC,,0.00,WeatherDisplay:10.37,2013-03-14 08:22:00,
2013-03-14 01:27:00,49.8,28.2,30.05,SW,225,5.8,5.8,43,0.00,OVC,,0.00,WeatherDisplay:10.37,2013-03-14 08:27:00,
2013-03-14 01:32:00,49.9,29.4,30.05,SW,225,2.3,2.3,45,0.00,OVC,,0.00,WeatherDisplay:10.37,2013-03-14 08:32:00,
2013-03-14 01:37:00,49.6,28.6,30.04,SW,225,3.5,3.5,44,0.00,OVC,,0.00,WeatherDisplay:10.37,2013-03-14 08:37:00,
2013-03-14 01:42:00,49.3,28.8,30.05,SW,225,3.5,3.5,45,0.00,OVC,,0.00,WeatherDisplay:10.37,2013-03-14 08:42:00,
2013-03-14 01:47:00,47.7,29.5,30.05,SW,225,3.5,3.5,49,0.00,OVC,,0.00,WeatherDisplay:10.37,2013-03-14 08:47:00,
2013-03-14 01:52:00,47.6,28.9,30.05,SW,225,0.0,0.0,48,0.00,OVC,,0.00,WeatherDisplay:10.37,2013-03-14 08:52:00,
2013-03-14 01:57:00,47.9,29.1,30.05,SW,225,0.0,0.0,48,0.00,CLR,,0.00,WeatherDisplay:10.37,2013-03-14 08:57:00,
2013-03-14 02:02:00,47.9,29.1,30.05,SW,225,0.0,1.0,48,0.00,CLR,,0.00,WeatherDisplay:10.37,2013-03-14 09:02:00,
2013-03-14 02:07:00,48.4,29.6,30.05,SW,225,0.0,1.0,48,0.00,CLR,,0.00,WeatherDisplay:10.37,2013-03-14 09:07:00,
2013-03-14 02:12:00,49.3,29.4,30.05,SW,225,1.0,2.0,46,0.00,CLR,,0.00,WeatherDisplay:10.37,2013-03-14 09:12:00,
2013-03-14 02:17:00,50.0,28.9,30.05,SW,225,1.1,0.0,44,0.00,OVC,,0.00,WeatherDisplay:10.37,2013-03-14 09:17:00,
2013-03-14 02:22:00,49.2,28.7,30.05,SW,225,0.0,2.0,45,0.00,CLR,,0.00,WeatherDisplay:10.37,2013-03-14 09:22:00,
2013-03-14 02:27:00,49.1,29.2,30.05,SW,225,2.0,3.0,46,0.00,CLR,,0.00,WeatherDisplay:10.37,2013-03-14 09:27:00,
2013-03-14 02:32:00,49.4,28.9,30.05,SW,225,3.0,4.0,45,0.00,CLR,,0.00,WeatherDisplay:10.37,2013-03-14 09:32:00,
2013-03-14 02:37:00,47.8,28.0,30.05,SW,225,7.0,7.0,46,0.00,OVC,,0.00,WeatherDisplay:10.37,2013-03-14 09:37:00,
2013-03-14 02:42:00,45.2,27.6,30.05,SW,219,6.0,6.0,50,0.00,OVC,,0.00,WeatherDisplay:10.37,2013-03-14 09:42:00,
2013-03-14 02:47:00,45.0,28.5,30.05,SW,219,5.0,6.0,52,0.00,CLR,,0.00,WeatherDisplay:10.37,2013-03-14 09:47:00,
2013-03-14 02:52:00,45.4,28.3,30.05,SW,219,5.0,5.0,51,0.00,CLR,,0.00,WeatherDisplay:10.37,2013-03-14 09:52:00,
2013-03-14 02:58:00,45.1,28.5,30.05,SW,227,5.8,5.8,52,0.00,OVC,,0.00,WeatherDisplay:10.37,2013-03-14 09:58:00,
2013-03-14 03:03:00,46.3,29.1,30.05,SW,234,3.5,3.5,51,0.00,OVC,,0.00,WeatherDisplay:10.37,2013-03-14 10:03:00,
2013-03-14 03:08:00,47.8,29.0,30.05,SW,234,3.5,3.5,48,0.00,OVC,,0.00,WeatherDisplay:10.37,2013-03-14 10:08:00,
2013-03-14 03:13:00,48.1,28.8,30.05,SW,234,5.0,5.0,47,0.00,OVC,,0.00,WeatherDisplay:10.37,2013-03-14 10:13:00,
2013-03-14 03:18:00,46.3,28.7,30.05,SW,232,5.8,5.8,50,0.00,OVC,,0.00,WeatherDisplay:10.37,2013-03-14 10:18:00,
2013-03-14 03:23:00,45.8,28.7,30.05,SW,232,4.6,4.6,51,0.00,OVC,,0.00,WeatherDisplay:10.37,2013-03-14 10:23:00,
2013-03-14 03:29:00,47.3,29.1,30.05,SW,233,4.0,4.0,49,0.00,OVC,,0.00,WeatherDisplay:10.37,2013-03-14 10:29:00,
2013-03-14 03:34:00,47.8,29.0,30.05,SW,233,3.5,3.5,48,0.00,OVC,,0.00,WeatherDisplay:10.37,2013-03-14 10:34:00,
2013-03-14 03:39:00,48.4,29.1,30.04,SW,233,2.3,2.3,47,0.00,OVC,,0.00,WeatherDisplay:10.37,2013-03-14 10:39:00,
2013-03-14 03:44:00,47.8,28.5,30.04,SW,233,2.3,2.3,47,0.00,OVC,,0.00,WeatherDisplay:10.37,2013-03-14 10:44:00,
2013-03-14 03:49:00,47.7,28.9,30.04,SW,233,3.5,3.5,48,0.00,OVC,,0.00,WeatherDisplay:10.37,2013-03-14 10:49:00,
2013-03-14 03:54:00,48.4,29.1,30.04,SW,233,1.1,0.0,47,0.00,OVC,,0.00,WeatherDisplay:10.37,2013-03-14 10:54:00,
2013-03-14 03:59:00,48.8,28.9,30.04,SW,233,2.3,2.3,46,0.00,OVC,,0.00,WeatherDisplay:10.37,2013-03-14 10:59:00,
2013-03-14 04:04:00,49.2,29.3,30.04,SW,233,1.1,0.0,46,0.00,OVC,,0.00,WeatherDisplay:10.37,2013-03-14 11:04:00,
2013-03-14 04:09:00,47.9,28.1,30.04,SW,232,3.5,3.5,46,0.00,OVC,,0.00,WeatherDisplay:10.37,2013-03-14 11:09:00,
2013-03-14 04:15:00,46.1,28.0,30.04,SSW,211,4.0,4.0,49,0.00,OVC,,0.00,WeatherDisplay:10.37,2013-03-14 11:15:00,
2013-03-14 04:20:00,43.5,27.5,30.04,SSW,194,5.0,5.0,53,0.00,OVC,,0.00,WeatherDisplay:10.37,2013-03-14 11:20:00,
2013-03-14 04:25:00,43.6,28.5,30.04,SSW,194,6.0,6.0,55,0.00,OVC,,0.00,WeatherDisplay:10.37,2013-03-14 11:25:00,
2013-03-14 04:30:00,43.3,27.8,30.04,SW,215,6.0,6.0,54,0.00,OVC,,0.00,WeatherDisplay:10.37,2013-03-14 11:30:00,
2013-03-14 04:35:00,42.0,27.9,30.04,SSW,211,6.9,6.9,57,0.00,OVC,,0.00,WeatherDisplay:10.37,2013-03-14 11:35:00,
2013-03-14 04:40:00,41.7,28.4,30.04,SSW,208,6.0,6.0,59,0.00,OVC,,0.00,WeatherDisplay:10.37,2013-03-14 11:40:00,
2013-03-14 04:46:00,41.7,28.4,30.05,SSW,208,7.0,7.0,59,0.00,OVC,,0.00,WeatherDisplay:10.37,2013-03-14 11:46:00,
2013-03-14 04:51:00,41.7,28.8,30.05,SW,215,8.0,8.0,60,0.00,OVC,,0.00,WeatherDisplay:10.37,2013-03-14 11:51:00,
2013-03-14 04:56:00,43.6,29.4,30.05,SW,228,5.8,5.8,57,0.00,OVC,,0.00,WeatherDisplay:10.37,2013-03-14 11:56:00,
2013-03-14 05:01:00,44.2,29.0,30.05,SW,228,6.0,6.0,55,0.00,CLR,,0.00,WeatherDisplay:10.37,2013-03-14 12:01:00,
2013-03-14 05:07:00,44.6,29.0,30.05,SW,229,8.1,8.1,54,0.00,OVC,,0.00,WeatherDisplay:10.37,2013-03-14 12:07:00,
2013-03-14 05:12:00,46.6,29.9,30.05,WSW,248,6.9,6.9,52,0.00,OVC,,0.00,WeatherDisplay:10.37,2013-03-14 12:12:00,
2013-03-14 05:17:00,45.7,29.1,30.05,WSW,248,5.0,5.0,52,0.00,OVC,,0.00,WeatherDisplay:10.37,2013-03-14 12:17:00,
2013-03-14 05:22:00,44.3,29.1,30.05,WSW,249,4.6,4.6,55,0.00,OVC,,0.00,WeatherDisplay:10.37,2013-03-14 12:22:00,
2013-03-14 05:27:00,43.3,29.5,30.05,WSW,250,3.5,3.5,58,0.00,OVC,,0.00,WeatherDisplay:10.37,2013-03-14 12:27:00,
2013-03-14 05:32:00,42.9,29.5,30.05,NW,311,3.5,3.5,59,0.00,OVC,,0.00,WeatherDisplay:10.37,2013-03-14 12:32:00,
2013-03-14 05:37:00,44.1,30.2,30.05,NW,310,3.0,4.0,58,0.00,CLR,,0.00,WeatherDisplay:10.37,2013-03-14 12:37:00,
2013-03-14 05:42:00,45.1,29.8,30.05,NW,320,0.0,4.0,55,0.00,CLR,,0.00,WeatherDisplay:10.37,2013-03-14 12:42:00,
2013-03-14 05:47:00,44.4,29.2,30.05,NNW,327,0.0,2.0,55,0.00,CLR,,0.00,WeatherDisplay:10.37,2013-03-14 12:47:00,
2013-03-14 05:52:00,43.5,29.3,30.05,NNW,327,0.0,0.0,57,0.00,CLR,,0.00,WeatherDisplay:10.37,2013-03-14 12:52:00,
2013-03-14 05:58:00,42.9,29.5,30.05,NNW,327,2.3,2.3,59,0.00,OVC,,0.00,WeatherDisplay:10.37,2013-03-14 12:58:00,
2013-03-14 06:03:00,42.0,28.7,30.05,South,178,8.1,8.1,59,0.00,OVC,,0.00,WeatherDisplay:10.37,2013-03-14 13:03:00,
2013-03-14 06:08:00,41.2,28.8,30.05,South,187,6.9,6.9,61,0.00,OVC,,0.00,WeatherDisplay:10.37,2013-03-14 13:08:00,
2013-03-14 06:13:00,43.0,30.1,30.05,SSW,203,6.0,6.0,60,0.00,OVC,,0.00,WeatherDisplay:10.37,2013-03-14 13:13:00,
2013-03-14 06:18:00,42.0,28.3,30.05,SSW,207,6.0,6.0,58,0.00,OVC,,0.00,WeatherDisplay:10.37,2013-03-14 13:18:00,
2013-03-14 06:23:00,40.4,28.4,30.06,SSW,207,6.0,6.0,62,0.00,OVC,,0.00,WeatherDisplay:10.37,2013-03-14 13:23:00,
2013-03-14 06:28:00,40.0,28.8,30.06,SSW,207,5.8,5.8,64,0.00,OVC,,0.00,WeatherDisplay:10.37,2013-03-14 13:28:00,
2013-03-14 06:33:00,40.1,28.9,30.06,SSW,195,6.0,6.0,64,0.00,OVC,,0.00,WeatherDisplay:10.37,2013-03-14 13:33:00,
2013-03-14 06:38:00,40.6,29.0,30.06,SSW,195,6.0,6.0,63,0.00,OVC,,0.00,WeatherDisplay:10.37,2013-03-14 13:38:00,
2013-03-14 06:43:00,40.8,29.2,30.06,SSW,195,7.0,7.0,63,0.00,OVC,,0.00,WeatherDisplay:10.37,2013-03-14 13:43:00,
2013-03-14 06:48:00,41.4,29.3,30.06,SSW,195,6.0,6.0,62,0.00,OVC,,0.00,WeatherDisplay:10.37,2013-03-14 13:48:00,
2013-03-14 06:53:00,41.4,28.9,30.07,SSW,200,5.0,5.0,61,0.00,OVC,,0.00,WeatherDisplay:10.37,2013-03-14 13:53:00,
2013-03-14 06:59:00,41.0,28.6,30.07,SSW,208,6.0,6.0,61,0.00,OVC,,0.00,WeatherDisplay:10.37,2013-03-14 13:59:00,
2013-03-14 07:04:00,40.8,28.4,30.07,SSW,207,4.6,4.6,61,0.00,OVC,,0.00,WeatherDisplay:10.37,2013-03-14 14:04:00,
2013-03-14 07:09:00,40.7,28.3,30.07,SSW,207,3.5,3.5,61,0.00,OVC,,0.00,WeatherDisplay:10.37,2013-03-14 14:09:00,
2013-03-14 07:14:00,40.7,28.3,30.07,SSW,207,5.0,5.0,61,0.00,OVC,,0.00,WeatherDisplay:10.37,2013-03-14 14:14:00,
2013-03-14 07:19:00,41.6,28.7,30.07,SW,215,5.0,5.0,60,0.00,OVC,,0.00,WeatherDisplay:10.37,2013-03-14 14:19:00,
2013-03-14 07:24:00,42.1,28.8,30.08,SW,215,1.0,1.0,59,0.00,OVC,,0.00,WeatherDisplay:10.37,2013-03-14 14:24:00,
2013-03-14 07:29:00,42.2,28.9,30.08,SW,215,2.3,2.3,59,0.00,OVC,,0.00,WeatherDisplay:10.37,2013-03-14 14:29:00,
2013-03-14 07:34:00,42.4,29.1,30.08,SW,215,1.1,1.1,59,0.00,OVC,,0.00,WeatherDisplay:10.37,2013-03-14 14:34:00,
2013-03-14 07:40:00,42.5,29.6,30.08,SW,215,0.0,0.0,60,0.00,OVC,,0.00,WeatherDisplay:10.37,2013-03-14 14:40:00,
2013-03-14 07:45:00,43.0,30.1,30.08,SW,215,1.1,0.0,60,0.00,OVC,,0.00,WeatherDisplay:10.37,2013-03-14 14:45:00,
2013-03-14 07:50:00,43.5,30.9,30.08,SW,215,1.1,0.0,61,0.00,OVC,,0.00,WeatherDisplay:10.37,2013-03-14 14:50:00,
2013-03-14 07:55:00,44.1,31.1,30.08,SW,215,0.0,0.0,60,0.00,OVC,,0.00,WeatherDisplay:10.37,2013-03-14 14:55:00,
2013-03-14 08:00:00,43.7,30.3,30.08,SW,215,2.3,2.3,59,0.00,OVC,,0.00,WeatherDisplay:10.37,2013-03-14 15:00:00,
2013-03-14 08:05:00,43.6,30.6,30.08,NNE,12,2.3,2.3,60,0.00,OVC,,0.00,WeatherDisplay:10.37,2013-03-14 15:05:00,
2013-03-14 08:10:00,44.1,31.1,30.08,West,277,0.0,0.0,60,0.00,OVC,,0.00,WeatherDisplay:10.37,2013-03-14 15:10:00,
2013-03-14 08:15:00,45.7,31.8,30.08,West,277,1.1,0.0,58,0.00,OVC,,0.00,WeatherDisplay:10.37,2013-03-14 15:15:00,
2013-03-14 08:21:00,47.5,32.6,30.08,West,277,0.0,0.0,56,0.00,OVC,,0.00,WeatherDisplay:10.37,2013-03-14 15:21:00,
2013-03-14 08:26:00,48.4,32.5,30.09,West,277,0.0,0.0,54,0.00,OVC,,0.00,WeatherDisplay:10.37,2013-03-14 15:26:00,
2013-03-14 08:31:00,50.1,33.1,30.09,West,277,2.3,0.0,52,0.00,OVC,,0.00,WeatherDisplay:10.37,2013-03-14 15:31:00,
2013-03-14 08:37:00,52.1,33.5,30.09,West,277,2.3,2.3,49,0.00,OVC,,0.00,WeatherDisplay:10.37,2013-03-14 15:37:00,
2013-03-14 08:42:00,53.8,34.0,30.09,West,281,3.5,3.5,47,0.00,OVC,,0.00,WeatherDisplay:10.37,2013-03-14 15:42:00,
2013-03-14 08:47:00,55.2,34.2,30.09,NNE,12,3.5,3.5,45,0.00,OVC,,0.00,WeatherDisplay:10.37,2013-03-14 15:47:00,
2013-03-14 08:52:00,56.5,33.7,30.09,NNE,16,4.0,4.0,42,0.00,OVC,,0.00,WeatherDisplay:10.37,2013-03-14 15:52:00,
2013-03-14 08:57:00,57.5,33.3,30.09,NNE,16,4.0,4.0,40,0.00,CLR,,0.00,WeatherDisplay:10.37,2013-03-14 15:57:00,
2013-03-14 09:02:00,58.4,32.9,30.09,NNE,16,3.5,3.5,38,0.00,OVC,,0.00,WeatherDisplay:10.37,2013-03-14 16:02:00,
2013-03-14 09:07:00,59.6,31.9,30.09,NNE,16,5.0,5.0,35,0.00,CLR,,0.00,WeatherDisplay:10.37,2013-03-14 16:07:00,
2013-03-14 09:12:00,60.3,33.2,30.09,NNE,17,2.0,5.0,36,0.00,CLR,,0.00,WeatherDisplay:10.37,2013-03-14 16:12:00,
2013-03-14 09:17:00,61.3,34.1,30.09,NNE,18,3.0,4.0,36,0.00,CLR,,0.00,WeatherDisplay:10.37,2013-03-14 16:17:00,
2013-03-14 09:22:00,61.8,33.1,30.09,NNE,22,3.0,4.0,34,0.00,CLR,,0.00,WeatherDisplay:10.37,2013-03-14 16:22:00,
2013-03-14 09:27:00,62.7,32.4,30.09,NNE,25,3.5,3.5,32,0.00,CLR,,0.00,WeatherDisplay:10.37,2013-03-14 16:27:00,
2013-03-14 09:33:00,63.4,33.0,30.09,NNE,33,4.0,4.0,32,0.00,CLR,,0.00,WeatherDisplay:10.37,2013-03-14 16:33:00,
2013-03-14 09:38:00,64.0,32.7,30.09,ENE,61,2.3,2.3,31,0.00,CLR,,0.00,WeatherDisplay:10.37,2013-03-14 16:38:00,
2013-03-14 09:43:00,64.9,31.9,30.09,NE,43,3.5,3.5,29,0.00,CLR,,0.00,WeatherDisplay:10.37,2013-03-14 16:43:00,
2013-03-14 09:48:00,65.5,32.4,30.09,NE,44,3.5,3.5,29,0.00,CLR,,0.00,WeatherDisplay:10.37,2013-03-14 16:48:00,
2013-03-14 09:54:00,66.0,31.9,30.09,NE,44,3.5,3.5,28,0.00,CLR,,0.00,WeatherDisplay:10.37,2013-03-14 16:54:00,
2013-03-14 09:59:00,66.8,31.7,30.09,NE,44,4.0,4.0,27,0.00,CLR,,0.00,WeatherDisplay:10.37,2013-03-14 16:59:00,
2013-03-14 10:04:00,66.5,31.5,30.08,ENE,78,4.6,4.6,27,0.00,OVC,,0.00,WeatherDisplay:10.37,2013-03-14 17:04:00,
2013-03-14 10:09:00,66.7,31.6,30.09,ENE,76,5.0,5.0,27,0.00,OVC,,0.00,WeatherDisplay:10.37,2013-03-14 17:09:00,
2013-03-14 10:15:00,67.0,31.0,30.08,NE,55,3.5,3.5,26,0.00,OVC,,0.00,WeatherDisplay:10.37,2013-03-14 17:15:00,
2013-03-14 10:20:00,67.6,31.5,30.08,NE,55,3.5,3.5,26,0.00,OVC,,0.00,WeatherDisplay:10.37,2013-03-14 17:20:00,
2013-03-14 10:25:00,68.5,31.3,30.08,NE,55,3.5,3.5,25,0.00,OVC,,0.00,WeatherDisplay:10.37,2013-03-14 17:25:00,
2013-03-14 10:30:00,69.3,31.9,30.08,NE,55,4.0,4.0,25,0.00,OVC,,0.00,WeatherDisplay:10.37,2013-03-14 17:30:00,
2013-03-14 10:35:00,69.5,32.1,30.08,NE,55,2.3,2.3,25,0.00,OVC,,0.00,WeatherDisplay:10.37,2013-03-14 17:35:00,
2013-03-14 10:40:00,69.3,31.9,30.08,ENE,68,4.6,4.6,25,0.00,OVC,,0.00,WeatherDisplay:10.37,2013-03-14 17:40:00,
2013-03-14 10:45:00,69.3,31.9,30.08,NE,54,6.9,6.9,25,0.00,OVC,,0.00,WeatherDisplay:10.37,2013-03-14 17:45:00,
2013-03-14 10:51:00,69.9,31.4,30.08,East,80,6.9,6.9,24,0.00,OVC,,0.00,WeatherDisplay:10.37,2013-03-14 17:51:00,
2013-03-14 10:56:00,69.9,32.5,30.08,East,79,8.0,8.0,25,0.00,OVC,,0.00,WeatherDisplay:10.37,2013-03-14 17:56:00,
2013-03-14 11:01:00,69.8,31.4,30.08,East,91,6.0,6.0,24,0.00,OVC,,0.00,WeatherDisplay:10.37,2013-03-14 18:01:00,
2013-03-14 11:06:00,70.4,31.9,30.08,ENE,72,4.6,4.6,24,0.00,OVC,,0.00,WeatherDisplay:10.37,2013-03-14 18:06:00,
2013-03-14 11:12:00,71.4,32.7,30.07,NE,40,2.3,2.3,24,0.00,OVC,,0.00,WeatherDisplay:10.37,2013-03-14 18:12:00,
2013-03-14 11:17:00,71.9,31.0,30.08,East,87,4.6,4.6,22,0.00,OVC,,0.00,WeatherDisplay:10.37,2013-03-14 18:17:00,
2013-03-14 11:22:00,71.8,30.9,30.08,East,84,0.0,2.0,22,0.00,CLR,,0.00,WeatherDisplay:10.37,2013-03-14 18:22:00,
2013-03-14 11:27:00,72.4,32.5,30.07,East,87,0.0,1.0,23,0.00,CLR,,0.00,WeatherDisplay:10.37,2013-03-14 18:27:00,
2013-03-14 11:32:00,73.8,31.4,30.07,NE,49,3.5,3.5,21,0.00,OVC,,0.00,WeatherDisplay:10.37,2013-03-14 18:32:00,
2013-03-14 11:38:00,75.1,31.3,30.07,NE,53,3.5,3.5,20,0.00,OVC,,0.00,WeatherDisplay:10.37,2013-03-14 18:38:00,
2013-03-14 11:43:00,76.4,32.3,30.07,NE,53,3.5,3.5,20,0.00,OVC,,0.00,WeatherDisplay:10.37,2013-03-14 18:43:00,
2013-03-14 11:48:00,77.5,32.0,30.06,NE,53,6.0,6.0,19,0.00,OVC,,0.00,WeatherDisplay:10.37,2013-03-14 18:48:00,
2013-03-14 11:53:00,77.4,30.5,30.06,NE,44,3.5,3.5,18,0.00,OVC,,0.00,WeatherDisplay:10.37,2013-03-14 18:53:00,
2013-03-14 11:58:00,78.0,31.0,30.06,NNW,342,5.0,5.0,18,0.00,OVC,,0.00,WeatherDisplay:10.37,2013-03-14 18:58:00,
2013-03-14 12:04:00,79.3,32.1,30.06,NNW,346,2.3,2.3,18,0.00,CLR,,0.00,WeatherDisplay:10.37,2013-03-14 19:04:00,
2013-03-14 12:09:00,80.0,31.2,30.06,NNE,18,3.5,3.5,17,0.00,CLR,,0.00,WeatherDisplay:10.37,2013-03-14 19:09:00,
2013-03-14 12:14:00,78.5,31.4,30.06,ENE,74,4.6,4.6,18,0.00,CLR,,0.00,WeatherDisplay:10.37,2013-03-14 19:14:00,
2013-03-14 12:19:00,78.5,31.4,30.06,ENE,74,1.1,1.1,18,0.00,CLR,,0.00,WeatherDisplay:10.37,2013-03-14 19:19:00,
2013-03-14 12:24:00,78.8,30.3,30.05,East,80,3.5,3.5,17,0.00,CLR,,0.00,WeatherDisplay:10.37,2013-03-14 19:24:00,
2013-03-14 12:29:00,79.2,32.0,30.05,ENE,77,1.1,1.1,18,0.00,CLR,,0.00,WeatherDisplay:10.37,2013-03-14 19:29:00,
2013-03-14 12:34:00,80.3,31.5,30.05,NE,38,4.6,4.6,17,0.00,CLR,,0.00,WeatherDisplay:10.37,2013-03-14 19:34:00,
2013-03-14 12:39:00,80.3,30.0,30.04,East,92,5.0,5.0,16,0.00,CLR,,0.00,WeatherDisplay:10.37,2013-03-14 19:39:00,
2013-03-14 12:44:00,80.2,31.4,30.04,NNW,348,4.0,4.0,17,0.00,CLR,,0.00,WeatherDisplay:10.37,2013-03-14 19:44:00,
2013-03-14 12:50:00,81.6,31.0,30.04,North,9,1.1,1.1,16,0.00,CLR,,0.00,WeatherDisplay:10.37,2013-03-14 19:50:00,
2013-03-14 12:55:00,81.2,30.7,30.03,West,275,3.0,3.0,16,0.00,CLR,,0.00,WeatherDisplay:10.37,2013-03-14 19:55:00,
2013-03-14 13:00:00,80.7,31.8,30.03,SSE,159,3.0,3.0,17,0.00,CLR,,0.00,WeatherDisplay:10.37,2013-03-14 20:00:00,
2013-03-14 13:05:00,81.2,32.2,30.03,SE,140,4.0,4.0,17,0.00,CLR,,0.00,WeatherDisplay:10.37,2013-03-14 20:05:00,
2013-03-14 13:10:00,81.4,30.9,30.02,ENE,76,4.6,4.6,16,0.00,CLR,,0.00,WeatherDisplay:10.37,2013-03-14 20:10:00,
2013-03-14 13:16:00,82.2,31.5,30.02,NE,38,4.0,4.0,16,0.00,CLR,,0.00,WeatherDisplay:10.37,2013-03-14 20:16:00,
2013-03-14 13:21:00,83.0,30.6,30.02,East,82,5.8,5.8,15,0.00,CLR,,0.00,WeatherDisplay:10.37,2013-03-14 20:21:00,
2013-03-14 13:26:00,82.1,29.8,30.02,ESE,117,4.6,4.6,15,0.00,CLR,,0.00,WeatherDisplay:10.37,2013-03-14 20:26:00,
2013-03-14 13:31:00,82.5,30.2,30.01,ENE,74,7.0,7.0,15,0.00,CLR,,0.00,WeatherDisplay:10.37,2013-03-14 20:31:00,
2013-03-14 13:36:00,82.8,30.4,30.01,ENE,65,10.4,10.4,15,0.00,CLR,,0.00,WeatherDisplay:10.37,2013-03-14 20:36:00,
2013-03-14 13:42:00,82.8,30.4,30.01,NNW,334,5.8,5.8,15,0.00,CLR,,0.00,WeatherDisplay:10.37,2013-03-14 20:42:00,
2013-03-14 13:47:00,84.7,30.2,30.01,NNE,23,6.9,6.9,14,0.00,CLR,,0.00,WeatherDisplay:10.37,2013-03-14 20:47:00,
2013-03-14 13:52:00,85.2,28.8,30.00,NW,311,5.8,5.8,13,0.00,CLR,,0.00,WeatherDisplay:10.37,2013-03-14 20:52:00,
2013-03-14 13:57:00,84.7,30.2,30.00,NNW,336,4.6,0.0,14,0.00,CLR,,0.00,WeatherDisplay:10.37,2013-03-14 20:57:00,
2013-03-14 14:02:00,84.9,30.4,30.00,NE,36,2.3,2.3,14,0.00,CLR,,0.00,WeatherDisplay:10.37,2013-03-14 21:02:00,
2013-03-14 14:07:00,85.4,28.9,30.00,NE,53,7.0,7.0,13,0.00,CLR,,0.00,WeatherDisplay:10.37,2013-03-14 21:07:00,
2013-03-14 14:12:00,84.9,30.4,29.99,ENE,73,7.0,7.0,14,0.00,CLR,,0.00,WeatherDisplay:10.37,2013-03-14 21:12:00,
2013-03-14 14:17:00,83.2,29.0,29.99,East,80,10.4,10.4,14,0.00,CLR,,0.00,WeatherDisplay:10.37,2013-03-14 21:17:00,
2013-03-14 14:22:00,83.0,28.9,29.99,ESE,106,2.0,6.0,14,0.00,CLR,,0.00,WeatherDisplay:10.37,2013-03-14 21:22:00,
2013-03-14 14:27:00,83.1,30.7,29.99,South,169,0.0,4.0,15,0.00,CLR,,0.00,WeatherDisplay:10.37,2013-03-14 21:27:00,
2013-03-14 14:32:00,84.5,30.0,29.99,SSW,200,3.0,6.0,14,0.00,CLR,,0.00,WeatherDisplay:10.37,2013-03-14 21:32:00,
2013-03-14 14:37:00,86.4,29.8,29.99,North,359,3.0,7.0,13,0.00,CLR,,0.00,WeatherDisplay:10.37,2013-03-14 21:37:00,
2013-03-14 14:42:00,85.9,29.4,29.98,NE,43,5.0,8.0,13,0.00,CLR,,0.00,WeatherDisplay:10.37,2013-03-14 21:42:00,
2013-03-14 14:47:00,85.7,29.2,29.98,ENE,61,5.0,8.0,13,0.00,CLR,,0.00,WeatherDisplay:10.37,2013-03-14 21:47:00,
2013-03-14 14:52:00,85.2,28.8,29.98,East,80,5.8,5.8,13,0.00,CLR,,0.00,WeatherDisplay:10.37,2013-03-14 21:52:00,
2013-03-14 14:57:00,84.5,28.2,29.98,SE,129,8.1,8.1,13,0.00,CLR,,0.00,WeatherDisplay:10.37,2013-03-14 21:57:00,
2013-03-14 15:03:00,84.2,28.0,29.97,SE,133,1.1,1.1,13,0.00,CLR,,0.00,WeatherDisplay:10.37,2013-03-14 22:03:00,
2013-03-14 15:08:00,85.1,28.7,29.97,SSE,150,3.5,3.5,13,0.00,CLR,,0.00,WeatherDisplay:10.37,2013-03-14 22:08:00,
2013-03-14 15:13:00,85.6,29.1,29.97,ENE,63,3.5,0.0,13,0.00,CLR,,0.00,WeatherDisplay:10.37,2013-03-14 22:13:00,
2013-03-14 15:18:00,85.9,29.3,29.97,SSE,163,9.2,9.2,13,0.00,OVC,,0.00,WeatherDisplay:10.37,2013-03-14 22:18:00,
2013-03-14 15:23:00,85.3,28.9,29.97,SSW,200,5.8,5.8,13,0.00,CLR,,0.00,WeatherDisplay:10.37,2013-03-14 22:23:00,
2013-03-14 15:28:00,85.3,26.9,29.97,SE,143,11.5,11.5,12,0.00,CLR,,0.00,WeatherDisplay:10.37,2013-03-14 22:28:00,
2013-03-14 15:33:00,85.0,28.6,29.96,East,98,5.0,5.0,13,0.00,CLR,,0.00,WeatherDisplay:10.37,2013-03-14 22:33:00,
2013-03-14 15:38:00,84.7,28.4,29.96,East,95,8.1,8.1,13,0.00,CLR,,0.00,WeatherDisplay:10.37,2013-03-14 22:38:00,
2013-03-14 15:43:00,84.6,28.3,29.96,SE,136,8.1,8.1,13,0.00,CLR,,0.00,WeatherDisplay:10.37,2013-03-14 22:43:00,
2013-03-14 15:48:00,84.7,28.4,29.96,SE,142,5.8,5.8,13,0.00,CLR,,0.00,WeatherDisplay:10.37,2013-03-14 22:48:00,
2013-03-14 15:53:00,85.3,28.9,29.95,ENE,63,4.0,4.0,13,0.00,CLR,,0.00,WeatherDisplay:10.37,2013-03-14 22:53:00,
2013-03-14 15:59:00,86.2,29.6,29.95,SSW,192,10.4,10.4,13,0.00,CLR,,0.00,WeatherDisplay:10.37,2013-03-14 22:59:00,
2013-03-14 16:04:00,86.1,29.5,29.95,ESE,102,8.1,8.1,13,0.00,CLR,,0.00,WeatherDisplay:10.37,2013-03-14 23:04:00,
2013-03-14 16:09:00,86.1,29.5,29.95,SSE,150,6.0,6.0,13,0.00,CLR,,0.00,WeatherDisplay:10.37,2013-03-14 23:09:00,
2013-03-14 16:14:00,86.6,29.9,29.94,WSW,253,2.0,2.0,13,0.00,CLR,,0.00,WeatherDisplay:10.37,2013-03-14 23:14:00,
2013-03-14 16:19:00,86.4,29.7,29.94,ESE,122,9.2,9.2,13,0.00,CLR,,0.00,WeatherDisplay:10.37,2013-03-14 23:19:00,
2013-03-14 16:25:00,86.5,29.8,29.94,South,184,4.0,4.0,13,0.00,CLR,,0.00,WeatherDisplay:10.37,2013-03-14 23:25:00,
2013-03-14 16:30:00,86.5,29.8,29.94,SE,128,6.0,6.0,13,0.00,CLR,,0.00,WeatherDisplay:10.37,2013-03-14 23:30:00,
2013-03-14 16:35:00,86.3,29.6,29.94,ESE,103,9.0,9.0,13,0.00,CLR,,0.00,WeatherDisplay:10.37,2013-03-14 23:35:00,
2013-03-14 16:40:00,86.0,29.4,29.94,SE,135,8.0,8.0,13,0.00,CLR,,0.00,WeatherDisplay:10.37,2013-03-14 23:40:00,
2013-03-14 16:45:00,85.7,29.2,29.94,SE,136,10.4,10.4,13,0.00,CLR,,0.00,WeatherDisplay:10.37,2013-03-14 23:45:00,
2013-03-14 16:50:00,85.9,29.3,29.94,ESE,102,6.9,6.9,13,0.00,CLR,,0.00,WeatherDisplay:10.37,2013-03-14 23:50:00,
2013-03-14 16:56:00,86.3,29.6,29.93,SE,139,6.9,6.9,13,0.00,CLR,,0.00,WeatherDisplay:10.37,2013-03-14 23:56:00,
2013-03-14 17:01:00,86.4,27.8,29.93,South,174,10.4,10.4,12,0.00,CLR,,0.00,WeatherDisplay:10.37,2013-03-15 00:01:00,
2013-03-14 17:06:00,86.8,28.1,29.93,SSW,203,4.6,4.6,12,0.00,CLR,,0.00,WeatherDisplay:10.37,2013-03-15 00:06:00,
2013-03-14 17:11:00,86.8,28.1,29.93,SW,221,6.9,6.9,12,0.00,CLR,,0.00,WeatherDisplay:10.37,2013-03-15 00:11:00,
2013-03-14 17:16:00,86.7,30.0,29.93,SE,138,8.0,8.0,13,0.00,CLR,,0.00,WeatherDisplay:10.37,2013-03-15 00:16:00,
2013-03-14 17:21:00,86.3,33.2,29.93,SE,136,18.4,18.4,15,0.00,CLR,,0.00,WeatherDisplay:10.37,2013-03-15 00:21:00,
2013-03-14 17:27:00,85.7,35.9,29.93,SE,142,16.0,16.0,17,0.00,CLR,,0.00,WeatherDisplay:10.37,2013-03-15 00:27:00,
2013-03-14 17:32:00,85.1,35.4,29.93,SE,136,18.0,18.0,17,0.00,CLR,,0.00,WeatherDisplay:10.37,2013-03-15 00:32:00,
2013-03-14 17:37:00,84.5,36.3,29.93,SE,139,15.0,15.0,18,0.00,CLR,,0.00,WeatherDisplay:10.37,2013-03-15 00:37:00,
2013-03-14 17:42:00,83.5,36.9,29.93,SSE,166,12.0,12.0,19,0.00,CLR,,0.00,WeatherDisplay:10.37,2013-03-15 00:42:00,
2013-03-14 17:47:00,82.7,36.2,29.93,SSE,151,12.7,12.7,19,0.00,CLR,,0.00,WeatherDisplay:10.37,2013-03-15 00:47:00,
2013-03-14 17:52:00,81.7,36.7,29.93,SSE,157,14.0,14.0,20,0.00,CLR,,0.00,WeatherDisplay:10.37,2013-03-15 00:52:00,
2013-03-14 17:57:00,81.4,35.2,29.93,SSE,165,16.1,16.1,19,0.00,CLR,,0.00,WeatherDisplay:10.37,2013-03-15 00:57:00,
2013-03-14 18:02:00,81.0,36.1,29.93,SSE,160,12.0,15.0,20,0.00,CLR,,0.00,WeatherDisplay:10.37,2013-03-15 01:02:00,
2013-03-14 18:07:00,80.5,34.5,29.93,SSE,166,14.0,17.0,19,0.00,CLR,,0.00,WeatherDisplay:10.37,2013-03-15 01:07:00,
2013-03-14 18:12:00,80.6,35.8,29.93,SSE,167,14.0,20.0,20,0.00,CLR,,0.00,WeatherDisplay:10.37,2013-03-15 01:12:00,
2013-03-14 18:17:00,80.1,39.0,29.93,South,171,16.0,20.0,23,0.00,CLR,,0.00,WeatherDisplay:10.37,2013-03-15 01:17:00,
2013-03-14 18:22:00,79.8,38.7,29.93,South,180,16.0,22.0,23,0.00,CLR,,0.00,WeatherDisplay:10.37,2013-03-15 01:22:00,
2013-03-14 18:27:00,78.5,40.7,29.93,South,188,18.0,22.0,26,0.00,CLR,,0.00,WeatherDisplay:10.37,2013-03-15 01:27:00,
2013-03-14 18:32:00,77.6,41.0,29.93,South,190,16.0,21.0,27,0.00,CLR,,0.00,WeatherDisplay:10.37,2013-03-15 01:32:00,
2013-03-14 18:37:00,77.2,41.5,29.93,SSW,192,16.0,20.0,28,0.00,CLR,,0.00,WeatherDisplay:10.37,2013-03-15 01:37:00,
2013-03-14 18:42:00,76.9,41.3,29.93,SSW,192,17.0,21.0,28,0.00,CLR,,0.00,WeatherDisplay:10.37,2013-03-15 01:42:00,
2013-03-14 18:47:00,76.4,40.8,29.93,SSW,195,14.0,18.0,28,0.00,CLR,,0.00,WeatherDisplay:10.37,2013-03-15 01:47:00,
2013-03-14 18:52:00,75.9,40.4,29.93,SSW,196,13.0,17.0,28,0.00,CLR,,0.00,WeatherDisplay:10.37,2013-03-15 01:52:00,
2013-03-14 18:57:00,75.3,40.9,29.93,SSW,195,10.0,16.0,29,0.00,CLR,,0.00,WeatherDisplay:10.37,2013-03-15 01:57:00,
2013-03-14 19:02:00,74.9,40.5,29.94,SSW,195,10.0,15.0,29,0.00,CLR,,0.00,WeatherDisplay:10.37,2013-03-15 02:02:00,
2013-03-14 19:07:00,74.5,40.1,29.94,SSW,194,13.0,14.0,29,0.00,CLR,,0.00,WeatherDisplay:10.37,2013-03-15 02:07:00,
2013-03-14 19:12:00,74.1,39.8,29.94,SSW,193,12.0,14.0,29,0.00,CLR,,0.00,WeatherDisplay:10.37,2013-03-15 02:12:00,
2013-03-14 19:17:00,73.8,39.5,29.94,SSW,198,12.0,15.0,29,0.00,CLR,,0.00,WeatherDisplay:10.37,2013-03-15 02:17:00,
2013-03-14 19:22:00,73.6,39.3,29.94,SSW,209,9.0,14.0,29,0.00,CLR,,0.00,WeatherDisplay:10.37,2013-03-15 02:22:00,
2013-03-14 19:27:00,73.4,38.3,29.94,SSW,209,10.0,13.0,28,0.00,CLR,,0.00,WeatherDisplay:10.37,2013-03-15 02:27:00,
2013-03-14 19:32:00,73.1,38.9,29.95,SSW,199,10.0,14.0,29,0.00,CLR,,0.00,WeatherDisplay:10.37,2013-03-15 02:32:00,
2013-03-14 19:37:00,72.9,38.8,29.94,SSW,197,10.0,14.0,29,0.00,CLR,,0.00,WeatherDisplay:10.37,2013-03-15 02:37:00,
2013-03-14 19:42:00,72.4,39.2,29.95,SSW,197,10.0,12.0,30,0.00,CLR,,0.00,WeatherDisplay:10.37,2013-03-15 02:42:00,
2013-03-14 19:47:00,71.9,39.6,29.95,SSW,197,9.0,12.0,31,0.00,CLR,,0.00,WeatherDisplay:10.37,2013-03-15 02:47:00,
2013-03-14 19:52:00,71.6,40.1,29.95,SSW,198,10.0,12.0,32,0.00,CLR,,0.00,WeatherDisplay:10.37,2013-03-15 02:52:00,
2013-03-14 19:57:00,71.0,40.5,29.95,SSW,199,8.0,12.0,33,0.00,CLR,,0.00,WeatherDisplay:10.37,2013-03-15 02:57:00,
2013-03-14 20:02:00,70.5,40.0,29.95,SSW,203,8.0,12.0,33,0.00,CLR,,0.00,WeatherDisplay:10.37,2013-03-15 03:02:00,
2013-03-14 20:07:00,70.3,39.8,29.95,SW,214,8.0,10.0,33,0.00,CLR,,0.00,WeatherDisplay:10.37,2013-03-15 03:07:00,
2013-03-14 20:12:00,69.8,40.1,29.95,WSW,244,5.0,6.0,34,0.00,CLR,,0.00,WeatherDisplay:10.37,2013-03-15 03:12:00,
2013-03-14 20:17:00,69.9,40.2,29.95,West,266,5.0,7.0,34,0.00,CLR,,0.00,WeatherDisplay:10.37,2013-03-15 03:17:00,
2013-03-14 20:22:00,69.9,39.4,29.95,WSW,255,6.0,7.0,33,0.00,CLR,,0.00,WeatherDisplay:10.37,2013-03-15 03:22:00,
2013-03-14 20:27:00,69.7,39.3,29.96,WSW,239,8.0,10.0,33,0.00,CLR,,0.00,WeatherDisplay:10.37,2013-03-15 03:27:00,
2013-03-14 20:32:00,69.1,39.6,29.96,SW,233,8.0,10.0,34,0.00,CLR,,0.00,WeatherDisplay:10.37,2013-03-15 03:32:00,
2013-03-14 20:37:00,68.7,39.2,29.96,SW,235,8.0,10.0,34,0.00,CLR,,0.00,WeatherDisplay:10.37,2013-03-15 03:37:00,
2013-03-14 20:42:00,68.2,39.5,29.96,WSW,245,6.0,8.0,35,0.00,CLR,,0.00,WeatherDisplay:10.37,2013-03-15 03:42:00,
2013-03-14 20:47:00,68.0,39.3,29.96,WSW,256,5.0,7.0,35,0.00,CLR,,0.00,WeatherDisplay:10.37,2013-03-15 03:47:00,
2013-03-14 20:52:00,68.0,40.0,29.96,WSW,256,5.0,6.0,36,0.00,CLR,,0.00,WeatherDisplay:10.37,2013-03-15 03:52:00,
2013-03-14 20:57:00,68.1,40.1,29.96,WSW,256,5.0,6.0,36,0.00,CLR,,0.00,WeatherDisplay:10.37,2013-03-15 03:57:00,
2013-03-14 21:00:00,68.4,40.4,29.96,SW,233,7.0,7.0,36,0.00,OVC,,0.00,WeatherDisplay:10.37,2013-03-15 04:00:00,
2013-03-14 21:01:00,68.6,39.8,29.96,WSW,241,11.5,11.5,35,0.00,OVC,,0.00,WeatherDisplay:10.37,2013-03-15 04:01:00,
2013-03-14 21:06:00,68.4,39.7,29.97,SW,234,9.2,9.2,35,0.00,OVC,,0.00,WeatherDisplay:10.37,2013-03-15 04:06:00,
2013-03-14 21:11:00,68.0,40.0,29.97,WSW,238,9.2,9.2,36,0.00,OVC,,0.00,WeatherDisplay:10.37,2013-03-15 04:11:00,
2013-03-14 21:16:00,67.7,39.8,29.97,WSW,247,5.8,5.8,36,0.00,OVC,,0.00,WeatherDisplay:10.37,2013-03-15 04:16:00,
2013-03-14 21:22:00,67.3,39.4,29.97,WSW,254,3.5,3.5,36,0.00,OVC,,0.00,WeatherDisplay:10.37,2013-03-15 04:22:00,
2013-03-14 21:27:00,67.1,39.2,29.97,West,271,4.0,4.0,36,0.00,OVC,,0.00,WeatherDisplay:10.37,2013-03-15 04:27:00,
2013-03-14 21:32:00,66.9,39.1,29.96,West,269,3.5,3.5,36,0.00,OVC,,0.00,WeatherDisplay:10.37,2013-03-15 04:32:00,
2013-03-14 21:37:00,66.6,39.5,29.97,WSW,248,5.0,5.0,37,0.00,OVC,,0.00,WeatherDisplay:10.37,2013-03-15 04:37:00,
2013-03-14 21:42:00,66.4,39.3,29.97,West,259,4.6,4.6,37,0.00,OVC,,0.00,WeatherDisplay:10.37,2013-03-15 04:42:00,
2013-03-14 21:47:00,66.1,39.1,29.96,West,259,4.0,4.0,37,0.00,OVC,,0.00,WeatherDisplay:10.37,2013-03-15 04:47:00,
2013-03-14 21:52:00,66.2,39.1,29.97,WSW,253,6.0,6.0,37,0.00,OVC,,0.00,WeatherDisplay:10.37,2013-03-15 04:52:00,
2013-03-14 21:57:00,66.1,38.4,29.97,West,259,6.9,6.9,36,0.00,OVC,,0.00,WeatherDisplay:10.37,2013-03-15 04:57:00,
2013-03-14 22:02:00,66.1,37.6,29.97,WSW,254,5.0,6.0,35,0.00,CLR,,0.00,WeatherDisplay:10.37,2013-03-15 05:02:00,
2013-03-14 22:07:00,65.6,37.9,29.97,West,262,3.0,6.0,36,0.00,CLR,,0.00,WeatherDisplay:10.37,2013-03-15 05:07:00,
2013-03-14 22:13:00,65.3,38.3,29.97,WSW,247,8.1,8.1,37,0.00,OVC,,0.00,WeatherDisplay:10.37,2013-03-15 05:13:00,
2013-03-14 22:18:00,63.8,39.0,29.97,WSW,254,6.9,6.9,40,0.00,OVC,,0.00,WeatherDisplay:10.37,2013-03-15 05:18:00,
2013-03-14 22:23:00,62.8,38.7,29.96,WSW,248,6.9,6.9,41,0.00,OVC,,0.00,WeatherDisplay:10.37,2013-03-15 05:23:00,
2013-03-14 22:28:00,61.2,39.1,29.97,WSW,253,6.0,6.0,44,0.00,OVC,,0.00,WeatherDisplay:10.37,2013-03-15 05:28:00,
2013-03-14 22:33:00,59.9,39.6,29.97,WSW,239,8.0,8.0,47,0.00,OVC,,0.00,WeatherDisplay:10.37,2013-03-15 05:33:00,
2013-03-14 22:38:00,59.4,39.7,29.97,SW,229,9.0,9.0,48,0.00,OVC,,0.00,WeatherDisplay:10.37,2013-03-15 05:38:00,
2013-03-14 22:44:00,59.4,40.2,29.97,SW,230,7.0,7.0,49,0.00,OVC,,0.00,WeatherDisplay:10.37,2013-03-15 05:44:00,
2013-03-14 22:49:00,59.4,40.2,29.96,WSW,243,8.0,8.0,49,0.00,OVC,,0.00,WeatherDisplay:10.37,2013-03-15 05:49:00,
2013-03-14 22:54:00,59.4,40.7,29.96,WSW,248,8.0,8.0,50,0.00,OVC,,0.00,WeatherDisplay:10.37,2013-03-15 05:54:00,
2013-03-14 22:59:00,60.4,41.1,29.97,WSW,239,9.2,9.2,49,0.00,OVC,,0.00,WeatherDisplay:10.37,2013-03-15 05:59:00,
2013-03-14 23:05:00,62.2,41.2,29.96,WSW,238,9.2,9.2,46,0.00,OVC,,0.00,WeatherDisplay:10.37,2013-03-15 06:05:00,
2013-03-14 23:10:00,62.1,40.5,29.96,SW,229,9.2,9.2,45,0.00,OVC,,0.00,WeatherDisplay:10.37,2013-03-15 06:10:00,
2013-03-14 23:15:00,60.7,40.3,29.96,WSW,247,8.1,8.1,47,0.00,OVC,,0.00,WeatherDisplay:10.37,2013-03-15 06:15:00,
2013-03-14 23:20:00,61.0,40.1,29.96,WSW,245,9.2,9.2,46,0.00,OVC,,0.00,WeatherDisplay:10.37,2013-03-15 06:20:00,
2013-03-14 23:25:00,61.6,39.5,29.96,WSW,257,10.4,10.4,44,0.00,OVC,,0.00,WeatherDisplay:10.37,2013-03-15 06:25:00,
2013-03-14 23:30:00,62.3,38.3,29.96,WSW,254,10.4,10.4,41,0.00,OVC,,0.00,WeatherDisplay:10.37,2013-03-15 06:30:00,
2013-03-14 23:35:00,62.5,37.8,29.95,WSW,255,8.1,8.1,40,0.00,OVC,,0.00,WeatherDisplay:10.37,2013-03-15 06:35:00,
2013-03-14 23:41:00,63.3,37.9,29.95,West,259,9.2,9.2,39,0.00,OVC,,0.00,WeatherDisplay:10.37,2013-03-15 06:41:00,
2013-03-14 23:46:00,63.4,38.0,29.95,WSW,250,9.2,9.2,39,0.00,OVC,,0.00,WeatherDisplay:10.37,2013-03-15 06:46:00,
2013-03-14 23:51:00,63.6,37.5,29.95,WSW,249,8.1,8.1,38,0.00,OVC,,0.00,WeatherDisplay:10.37,2013-03-15 06:51:00,
2013-03-14 23:56:00,64.0,37.2,29.95,WSW,246,9.2,9.2,37,0.00,OVC,,0.00,WeatherDisplay:10.37,2013-03-15 06:56:00,